sensor_id;sensor_type;location;lat;lon;timestamp;pressure;altitude;pressure_sealevel;temperature;humidity
77311;BME280;66371;52.714;5.074;2023-09-07T00:00:59;102148.25;;;19.14;100.00
77311;BME280;66371;52.714;5.074;2023-09-07T00:03:29;102143.69;;;19.14;100.00
77311;BME280;66371;52.714;5.074;2023-09-07T00:05:54;102151.34;;;19.11;100.00
77311;BME280;66371;52.714;5.074;2023-09-07T00:08:20;102142.28;;;19.04;100.00
77311;BME280;66371;52.714;5.074;2023-09-07T00:10:45;102156.38;;;18.99;100.00
77311;BME280;66371;52.714;5.074;2023-09-07T00:13:11;102145.09;;;18.88;100.00
77311;BME280;66371;52.714;5.074;2023-09-07T00:15:38;102146.88;;;18.81;100.00
77311;BME280;66371;52.714;5.074;2023-09-07T00:18:04;102154.69;;;18.76;100.00
77311;BME280;66371;52.714;5.074;2023-09-07T00:20:30;102153.38;;;18.72;100.00
77311;BME280;66371;52.714;5.074;2023-09-07T00:22:55;102149.66;;;18.73;100.00
77311;BME280;66371;52.714;5.074;2023-09-07T00:25:21;102147.44;;;18.76;100.00
77311;BME280;66371;52.714;5.074;2023-09-07T00:27:46;102156.50;;;18.83;100.00
77311;BME280;66371;52.714;5.074;2023-09-07T00:30:12;102149.34;;;18.90;100.00
77311;BME280;66371;52.714;5.074;2023-09-07T00:32:38;102147.94;;;18.94;100.00
77311;BME280;66371;52.714;5.074;2023-09-07T00:35:05;102134.56;;;18.93;100.00
77311;BME280;66371;52.714;5.074;2023-09-07T00:37:31;102135.72;;;18.98;100.00
77311;BME280;66371;52.714;5.074;2023-09-07T00:39:56;102134.56;;;18.93;100.00
77311;BME280;66371;52.714;5.074;2023-09-07T00:42:22;102140.72;;;18.87;100.00
77311;BME280;66371;52.714;5.074;2023-09-07T00:44:47;102129.59;;;18.82;100.00
77311;BME280;66371;52.714;5.074;2023-09-07T00:47:14;102132.28;;;18.82;100.00
77311;BME280;66371;52.714;5.074;2023-09-07T00:49:40;102135.00;;;18.82;100.00
77311;BME280;66371;52.714;5.074;2023-09-07T00:52:07;102138.44;;;18.76;100.00
77311;BME280;66371;52.714;5.074;2023-09-07T00:54:35;102131.28;;;18.83;100.00
77311;BME280;66371;52.714;5.074;2023-09-07T00:57:04;102126.75;;;18.98;100.00
77311;BME280;66371;52.714;5.074;2023-09-07T00:59:31;102129.19;;;19.07;100.00
77311;BME280;66371;52.714;5.074;2023-09-07T01:04:39;102129.09;;;19.15;100.00
77311;BME280;66371;52.714;5.074;2023-09-07T01:07:14;102113.56;;;19.09;100.00
77311;BME280;66371;52.714;5.074;2023-09-07T01:09:43;102121.16;;;19.14;100.00
77311;BME280;66371;52.714;5.074;2023-09-07T01:12:16;102124.91;;;19.13;100.00
77311;BME280;66371;52.714;5.074;2023-09-07T01:14:41;102122.19;;;19.13;100.00
77311;BME280;66371;52.714;5.074;2023-09-07T01:17:09;102128.28;;;19.15;100.00
77311;BME280;66371;52.714;5.074;2023-09-07T01:19:34;102112.94;;;19.07;100.00
77311;BME280;66371;52.714;5.074;2023-09-07T01:22:00;102121.53;;;19.11;100.00
77311;BME280;66371;52.714;5.074;2023-09-07T01:24:26;102109.25;;;19.00;100.00
77311;BME280;66371;52.714;5.074;2023-09-07T01:26:53;102117.56;;;18.99;100.00
77311;BME280;66371;52.714;5.074;2023-09-07T01:29:19;102121.69;;;18.95;100.00
77311;BME280;66371;52.714;5.074;2023-09-07T01:31:45;102123.72;;;18.93;100.00
77311;BME280;66371;52.714;5.074;2023-09-07T01:34:10;102107.97;;;18.96;100.00
77311;BME280;66371;52.714;5.074;2023-09-07T01:36:36;102120.72;;;18.88;100.00
77311;BME280;66371;52.714;5.074;2023-09-07T01:39:03;102129.41;;;18.83;100.00
77311;BME280;66371;52.714;5.074;2023-09-07T01:41:30;102123.53;;;18.80;100.00
77311;BME280;66371;52.714;5.074;2023-09-07T01:43:56;102124.91;;;18.76;100.00
77311;BME280;66371;52.714;5.074;2023-09-07T01:46:21;102130.13;;;18.77;100.00
77311;BME280;66371;52.714;5.074;2023-09-07T01:48:47;102127.59;;;18.76;100.00
77311;BME280;66371;52.714;5.074;2023-09-07T01:51:12;102126.78;;;18.75;100.00
77311;BME280;66371;52.714;5.074;2023-09-07T01:53:37;102133.88;;;18.76;100.00
77311;BME280;66371;52.714;5.074;2023-09-07T01:56:03;102126.28;;;18.72;100.00
77311;BME280;66371;52.714;5.074;2023-09-07T01:58:28;102132.25;;;18.67;100.00
77311;BME280;66371;52.714;5.074;2023-09-07T02:00:57;102128.13;;;18.57;100.00
77311;BME280;66371;52.714;5.074;2023-09-07T02:03:23;102124.38;;;18.58;100.00
77311;BME280;66371;52.714;5.074;2023-09-07T02:05:48;102129.13;;;18.56;100.00
77311;BME280;66371;52.714;5.074;2023-09-07T02:08:14;102133.72;;;18.55;100.00
77311;BME280;66371;52.714;5.074;2023-09-07T02:10:39;102105.47;;;18.50;100.00
77311;BME280;66371;52.714;5.074;2023-09-07T02:13:05;102115.25;;;18.59;100.00
77311;BME280;66371;52.714;5.074;2023-09-07T02:15:30;102123.66;;;18.64;100.00
77311;BME280;66371;52.714;5.074;2023-09-07T02:17:56;102126.53;;;18.62;100.00
77311;BME280;66371;52.714;5.074;2023-09-07T02:20:21;102113.41;;;18.51;100.00
77311;BME280;66371;52.714;5.074;2023-09-07T02:22:47;102133.16;;;18.60;100.00
77311;BME280;66371;52.714;5.074;2023-09-07T02:25:12;102126.41;;;18.56;100.00
77311;BME280;66371;52.714;5.074;2023-09-07T02:27:38;102125.09;;;18.52;100.00
77311;BME280;66371;52.714;5.074;2023-09-07T02:30:04;102135.75;;;18.53;100.00
77311;BME280;66371;52.714;5.074;2023-09-07T02:32:31;102128.84;;;18.51;100.00
77311;BME280;66371;52.714;5.074;2023-09-07T02:34:56;102133.03;;;18.53;100.00
77311;BME280;66371;52.714;5.074;2023-09-07T02:37:22;102120.72;;;18.51;100.00
77311;BME280;66371;52.714;5.074;2023-09-07T02:39:49;102121.16;;;18.54;100.00
77311;BME280;66371;52.714;5.074;2023-09-07T02:42:15;102116.13;;;18.51;100.00
77311;BME280;66371;52.714;5.074;2023-09-07T02:44:40;102123.06;;;18.54;100.00
77311;BME280;66371;52.714;5.074;2023-09-07T02:47:06;102124.06;;;18.53;100.00
77311;BME280;66371;52.714;5.074;2023-09-07T02:49:31;102124.44;;;18.50;100.00
77311;BME280;66371;52.714;5.074;2023-09-07T02:51:57;102130.19;;;18.47;100.00
77311;BME280;66371;52.714;5.074;2023-09-07T02:54:22;102127.03;;;18.43;100.00
77311;BME280;66371;52.714;5.074;2023-09-07T02:56:48;102125.50;;;18.41;100.00
77311;BME280;66371;52.714;5.074;2023-09-07T02:59:13;102130.59;;;18.36;100.00
77311;BME280;66371;52.714;5.074;2023-09-07T03:01:39;102132.16;;;18.30;100.00
77311;BME280;66371;52.714;5.074;2023-09-07T03:04:05;102127.94;;;18.28;100.00
77311;BME280;66371;52.714;5.074;2023-09-07T03:06:31;102129.97;;;18.26;100.00
77311;BME280;66371;52.714;5.074;2023-09-07T03:08:56;102130.66;;;18.28;100.00
77311;BME280;66371;52.714;5.074;2023-09-07T03:11:22;102128.31;;;18.25;100.00
77311;BME280;66371;52.714;5.074;2023-09-07T03:13:47;102129.81;;;18.27;100.00
77311;BME280;66371;52.714;5.074;2023-09-07T03:16:13;102128.66;;;18.22;100.00
77311;BME280;66371;52.714;5.074;2023-09-07T03:18:38;102136.13;;;18.20;100.00
77311;BME280;66371;52.714;5.074;2023-09-07T03:21:03;102125.63;;;18.17;100.00
77311;BME280;66371;52.714;5.074;2023-09-07T03:23:30;102127.38;;;18.10;100.00
77311;BME280;66371;52.714;5.074;2023-09-07T03:25:57;102134.50;;;18.03;100.00
77311;BME280;66371;52.714;5.074;2023-09-07T03:28:23;102123.56;;;17.96;100.00
77311;BME280;66371;52.714;5.074;2023-09-07T03:30:51;102126.50;;;17.87;100.00
77311;BME280;66371;52.714;5.074;2023-09-07T03:33:16;102125.81;;;17.85;100.00
77311;BME280;66371;52.714;5.074;2023-09-07T03:35:41;102129.72;;;17.82;100.00
77311;BME280;66371;52.714;5.074;2023-09-07T03:38:07;102127.56;;;17.78;100.00
77311;BME280;66371;52.714;5.074;2023-09-07T03:40:33;102123.31;;;17.75;100.00
77311;BME280;66371;52.714;5.074;2023-09-07T03:42:59;102115.53;;;17.72;100.00
77311;BME280;66371;52.714;5.074;2023-09-07T03:45:24;102122.84;;;17.72;100.00
77311;BME280;66371;52.714;5.074;2023-09-07T03:47:49;102110.38;;;17.63;100.00
77311;BME280;66371;52.714;5.074;2023-09-07T03:50:15;102126.25;;;17.66;100.00
77311;BME280;66371;52.714;5.074;2023-09-07T03:52:40;102121.19;;;17.63;100.00
77311;BME280;66371;52.714;5.074;2023-09-07T03:55:06;102120.69;;;17.59;100.00
77311;BME280;66371;52.714;5.074;2023-09-07T03:57:32;102123.22;;;17.61;100.00
77311;BME280;66371;52.714;5.074;2023-09-07T03:59:58;102124.88;;;17.62;100.00
77311;BME280;66371;52.714;5.074;2023-09-07T04:02:24;102127.59;;;17.62;100.00
77311;BME280;66371;52.714;5.074;2023-09-07T04:04:53;102121.38;;;17.61;100.00
77311;BME280;66371;52.714;5.074;2023-09-07T04:07:18;102124.25;;;17.60;100.00
77311;BME280;66371;52.714;5.074;2023-09-07T04:09:44;102126.44;;;17.64;100.00
77311;BME280;66371;52.714;5.074;2023-09-07T04:12:10;102132.66;;;17.65;100.00
77311;BME280;66371;52.714;5.074;2023-09-07T04:14:36;102134.38;;;17.66;100.00
77311;BME280;66371;52.714;5.074;2023-09-07T04:17:02;102135.00;;;17.68;100.00
77311;BME280;66371;52.714;5.074;2023-09-07T04:19:30;102131.84;;;17.64;100.00
77311;BME280;66371;52.714;5.074;2023-09-07T04:21:56;102129.66;;;17.60;100.00
77311;BME280;66371;52.714;5.074;2023-09-07T04:24:22;102120.19;;;17.56;100.00
77311;BME280;66371;52.714;5.074;2023-09-07T04:26:47;102122.53;;;17.59;100.00
77311;BME280;66371;52.714;5.074;2023-09-07T04:29:13;102131.16;;;17.62;100.00
77311;BME280;66371;52.714;5.074;2023-09-07T04:31:38;102130.47;;;17.60;100.00
77311;BME280;66371;52.714;5.074;2023-09-07T04:34:04;102125.59;;;17.56;100.00
77311;BME280;66371;52.714;5.074;2023-09-07T04:36:30;102130.03;;;17.48;100.00
77311;BME280;66371;52.714;5.074;2023-09-07T04:38:55;102131.34;;;17.52;100.00
77311;BME280;66371;52.714;5.074;2023-09-07T04:41:21;102132.03;;;17.55;100.00
77311;BME280;66371;52.714;5.074;2023-09-07T04:43:46;102131.34;;;17.52;100.00
77311;BME280;66371;52.714;5.074;2023-09-07T04:46:12;102132.38;;;17.52;100.00
77311;BME280;66371;52.714;5.074;2023-09-07T04:48:39;102130.19;;;17.47;100.00
77311;BME280;66371;52.714;5.074;2023-09-07T04:51:08;102138.13;;;17.48;100.00
77311;BME280;66371;52.714;5.074;2023-09-07T04:53:35;102137.28;;;17.40;100.00
77311;BME280;66371;52.714;5.074;2023-09-07T04:56:02;102141.84;;;17.39;100.00
77311;BME280;66371;52.714;5.074;2023-09-07T04:58:28;102139.66;;;17.35;100.00
77311;BME280;66371;52.714;5.074;2023-09-07T05:00:53;102143.34;;;17.34;100.00
77311;BME280;66371;52.714;5.074;2023-09-07T05:03:19;102143.22;;;17.27;100.00
77311;BME280;66371;52.714;5.074;2023-09-07T05:05:44;102151.63;;;17.32;100.00
77311;BME280;66371;52.714;5.074;2023-09-07T05:08:10;102151.28;;;17.35;100.00
77311;BME280;66371;52.714;5.074;2023-09-07T05:10:38;102150.13;;;17.30;100.00
77311;BME280;66371;52.714;5.074;2023-09-07T05:13:04;102157.91;;;17.41;100.00
77311;BME280;66371;52.714;5.074;2023-09-07T05:15:29;102160.28;;;17.44;100.00
77311;BME280;66371;52.714;5.074;2023-09-07T05:17:55;102150.44;;;17.51;100.00
77311;BME280;66371;52.714;5.074;2023-09-07T05:20:21;102158.53;;;17.59;100.00
77311;BME280;66371;52.714;5.074;2023-09-07T05:22:46;102162.56;;;17.63;100.00
77311;BME280;66371;52.714;5.074;2023-09-07T05:25:11;102160.03;;;17.70;100.00
77311;BME280;66371;52.714;5.074;2023-09-07T05:27:37;102165.09;;;17.73;100.00
77311;BME280;66371;52.714;5.074;2023-09-07T05:30:04;102159.69;;;17.73;100.00
77311;BME280;66371;52.714;5.074;2023-09-07T05:32:30;102151.38;;;17.74;100.00
77311;BME280;66371;52.714;5.074;2023-09-07T05:34:55;102173.00;;;17.82;100.00
77311;BME280;66371;52.714;5.074;2023-09-07T05:37:20;102180.41;;;17.88;100.00
77311;BME280;66371;52.714;5.074;2023-09-07T05:39:46;102167.69;;;17.97;100.00
77311;BME280;66371;52.714;5.074;2023-09-07T05:42:11;102172.19;;;18.12;100.00
77311;BME280;66371;52.714;5.074;2023-09-07T05:44:37;102163.34;;;18.18;100.00
77311;BME280;66371;52.714;5.074;2023-09-07T05:47:03;102167.84;;;18.34;100.00
77311;BME280;66371;52.714;5.074;2023-09-07T05:49:29;102162.41;;;18.42;100.00
77311;BME280;66371;52.714;5.074;2023-09-07T05:51:54;102168.06;;;18.55;100.00
77311;BME280;66371;52.714;5.074;2023-09-07T05:54:20;102169.75;;;18.56;100.00
77311;BME280;66371;52.714;5.074;2023-09-07T05:56:45;102173.75;;;18.68;100.00
77311;BME280;66371;52.714;5.074;2023-09-07T05:59:11;102172.84;;;18.75;100.00
77311;BME280;66371;52.714;5.074;2023-09-07T06:01:36;102179.22;;;18.82;100.00
77311;BME280;66371;52.714;5.074;2023-09-07T06:04:02;102166.97;;;18.86;100.00
77311;BME280;66371;52.714;5.074;2023-09-07T06:06:29;102178.59;;;18.95;100.00
77311;BME280;66371;52.714;5.074;2023-09-07T06:08:54;102180.03;;;19.05;100.00
77311;BME280;66371;52.714;5.074;2023-09-07T06:11:19;102182.94;;;19.04;100.00
77311;BME280;66371;52.714;5.074;2023-09-07T06:13:45;102191.00;;;19.12;100.00
77311;BME280;66371;52.714;5.074;2023-09-07T06:16:12;102185.78;;;19.25;100.00
77311;BME280;66371;52.714;5.074;2023-09-07T06:18:37;102187.53;;;19.41;100.00
77311;BME280;66371;52.714;5.074;2023-09-07T06:21:04;102183.50;;;19.51;100.00
77311;BME280;66371;52.714;5.074;2023-09-07T06:23:31;102185.84;;;19.69;100.00
77311;BME280;66371;52.714;5.074;2023-09-07T06:25:56;102184.44;;;19.87;100.00
77311;BME280;66371;52.714;5.074;2023-09-07T06:28:22;102186.50;;;20.00;100.00
77311;BME280;66371;52.714;5.074;2023-09-07T06:30:47;102182.97;;;20.14;100.00
77311;BME280;66371;52.714;5.074;2023-09-07T06:33:12;102189.53;;;20.40;100.00
77311;BME280;66371;52.714;5.074;2023-09-07T06:35:38;102182.75;;;20.51;100.00
77311;BME280;66371;52.714;5.074;2023-09-07T06:38:04;102188.72;;;20.61;100.00
77311;BME280;66371;52.714;5.074;2023-09-07T06:40:29;102184.97;;;20.83;100.00
77311;BME280;66371;52.714;5.074;2023-09-07T06:42:55;102196.88;;;20.97;100.00
77311;BME280;66371;52.714;5.074;2023-09-07T06:45:22;102195.09;;;21.10;100.00
77311;BME280;66371;52.714;5.074;2023-09-07T06:47:50;102192.69;;;21.22;100.00
77311;BME280;66371;52.714;5.074;2023-09-07T06:50:16;102194.88;;;21.33;100.00
77311;BME280;66371;52.714;5.074;2023-09-07T06:52:42;102194.06;;;21.39;100.00
77311;BME280;66371;52.714;5.074;2023-09-07T06:55:07;102190.41;;;21.53;100.00
77311;BME280;66371;52.714;5.074;2023-09-07T06:57:32;102187.09;;;21.57;100.00
77311;BME280;66371;52.714;5.074;2023-09-07T06:59:59;102193.94;;;21.74;100.00
77311;BME280;66371;52.714;5.074;2023-09-07T07:02:24;102191.47;;;21.86;100.00
77311;BME280;66371;52.714;5.074;2023-09-07T07:04:50;102184.84;;;22.01;100.00
77311;BME280;66371;52.714;5.074;2023-09-07T07:07:17;102179.00;;;22.04;100.00
77311;BME280;66371;52.714;5.074;2023-09-07T07:09:42;102185.97;;;22.13;100.00
77311;BME280;66371;52.714;5.074;2023-09-07T07:12:07;102187.00;;;22.19;100.00
77311;BME280;66371;52.714;5.074;2023-09-07T07:14:33;102186.19;;;22.25;100.00
77311;BME280;66371;52.714;5.074;2023-09-07T07:16:58;102190.41;;;22.27;100.00
77311;BME280;66371;52.714;5.074;2023-09-07T07:19:24;102189.41;;;22.41;100.00
77311;BME280;66371;52.714;5.074;2023-09-07T07:21:50;102190.75;;;22.52;100.00
77311;BME280;66371;52.714;5.074;2023-09-07T07:24:15;102174.81;;;22.62;100.00
77311;BME280;66371;52.714;5.074;2023-09-07T07:26:41;102184.50;;;22.84;100.00
77311;BME280;66371;52.714;5.074;2023-09-07T07:29:07;102175.69;;;22.82;100.00
77311;BME280;66371;52.714;5.074;2023-09-07T07:31:34;102187.22;;;22.91;100.00
77311;BME280;66371;52.714;5.074;2023-09-07T07:33:59;102186.19;;;22.98;100.00
77311;BME280;66371;52.714;5.074;2023-09-07T07:36:25;102182.41;;;23.12;100.00
77311;BME280;66371;52.714;5.074;2023-09-07T07:38:51;102187.47;;;23.28;100.00
77311;BME280;66371;52.714;5.074;2023-09-07T07:41:16;102175.31;;;23.31;100.00
77311;BME280;66371;52.714;5.074;2023-09-07T07:43:41;102176.13;;;23.38;100.00
77311;BME280;66371;52.714;5.074;2023-09-07T07:46:08;102176.34;;;23.43;100.00
77311;BME280;66371;52.714;5.074;2023-09-07T07:48:33;102169.63;;;23.45;100.00
77311;BME280;66371;52.714;5.074;2023-09-07T07:51:03;102180.91;;;23.62;100.00
77311;BME280;66371;52.714;5.074;2023-09-07T07:53:29;102170.84;;;23.69;100.00
77311;BME280;66371;52.714;5.074;2023-09-07T07:55:54;102171.25;;;23.72;100.00
77311;BME280;66371;52.714;5.074;2023-09-07T07:58:21;102165.75;;;23.85;100.00
77311;BME280;66371;52.714;5.074;2023-09-07T08:00:46;102169.13;;;23.87;100.00
77311;BME280;66371;52.714;5.074;2023-09-07T08:03:13;102161.53;;;23.89;100.00
77311;BME280;66371;52.714;5.074;2023-09-07T08:05:39;102156.06;;;23.96;100.00
77311;BME280;66371;52.714;5.074;2023-09-07T08:08:05;102154.38;;;23.95;100.00
77311;BME280;66371;52.714;5.074;2023-09-07T08:10:35;102155.63;;;23.99;100.00
77311;BME280;66371;52.714;5.074;2023-09-07T08:13:02;102155.84;;;24.04;100.00
77311;BME280;66371;52.714;5.074;2023-09-07T08:15:29;102163.19;;;24.03;100.00
77311;BME280;66371;52.714;5.074;2023-09-07T08:17:54;102148.47;;;24.04;100.00
77311;BME280;66371;52.714;5.074;2023-09-07T08:20:20;102155.16;;;24.15;100.00
77311;BME280;66371;52.714;5.074;2023-09-07T08:22:46;102151.34;;;24.23;100.00
77311;BME280;66371;52.714;5.074;2023-09-07T08:25:13;102156.53;;;24.31;100.00
77311;BME280;66371;52.714;5.074;2023-09-07T08:27:42;102153.41;;;24.27;100.00
77311;BME280;66371;52.714;5.074;2023-09-07T08:30:15;102139.53;;;24.29;100.00
77311;BME280;66371;52.714;5.074;2023-09-07T08:32:43;102154.22;;;24.34;100.00
77311;BME280;66371;52.714;5.074;2023-09-07T08:35:10;102147.66;;;24.42;100.00
77311;BME280;66371;52.714;5.074;2023-09-07T08:37:38;102144.88;;;24.48;100.00
77311;BME280;66371;52.714;5.074;2023-09-07T08:40:04;102151.56;;;24.52;100.00
77311;BME280;66371;52.714;5.074;2023-09-07T08:42:33;102143.72;;;24.69;100.00
77311;BME280;66371;52.714;5.074;2023-09-07T08:45:00;102150.59;;;24.78;100.00
77311;BME280;66371;52.714;5.074;2023-09-07T08:47:29;102147.25;;;24.76;100.00
77311;BME280;66371;52.714;5.074;2023-09-07T08:49:57;102141.34;;;24.79;100.00
77311;BME280;66371;52.714;5.074;2023-09-07T08:52:23;102138.19;;;24.75;100.00
77311;BME280;66371;52.714;5.074;2023-09-07T08:54:50;102131.56;;;24.89;100.00
77311;BME280;66371;52.714;5.074;2023-09-07T08:57:17;102138.03;;;24.95;100.00
77311;BME280;66371;52.714;5.074;2023-09-07T08:59:43;102133.84;;;24.92;100.00
77311;BME280;66371;52.714;5.074;2023-09-07T09:02:09;102131.97;;;24.93;100.00
77311;BME280;66371;52.714;5.074;2023-09-07T09:04:36;102133.13;;;25.03;100.00
77311;BME280;66371;52.714;5.074;2023-09-07T09:07:02;102132.25;;;25.09;100.00
77311;BME280;66371;52.714;5.074;2023-09-07T09:09:29;102111.03;;;25.05;100.00
77311;BME280;66371;52.714;5.074;2023-09-07T09:11:55;102127.44;;;25.29;100.00
77311;BME280;66371;52.714;5.074;2023-09-07T09:14:20;102119.31;;;25.41;100.00
77311;BME280;66371;52.714;5.074;2023-09-07T09:16:53;102131.19;;;25.35;100.00
77311;BME280;66371;52.714;5.074;2023-09-07T09:19:19;102123.59;;;25.30;100.00
77311;BME280;66371;52.714;5.074;2023-09-07T09:21:44;102118.47;;;25.40;100.00
77311;BME280;66371;52.714;5.074;2023-09-07T09:24:11;102117.94;;;25.50;100.00
77311;BME280;66371;52.714;5.074;2023-09-07T09:26:37;102121.09;;;25.71;100.00
77311;BME280;66371;52.714;5.074;2023-09-07T09:29:03;102120.75;;;25.98;99.72
77311;BME280;66371;52.714;5.074;2023-09-07T09:31:29;102124.78;;;25.95;100.00
77311;BME280;66371;52.714;5.074;2023-09-07T09:33:55;102121.81;;;25.97;100.00
77311;BME280;66371;52.714;5.074;2023-09-07T09:36:21;102116.50;;;26.02;100.00
77311;BME280;66371;52.714;5.074;2023-09-07T09:38:51;102123.88;;;26.01;95.00
77311;BME280;66371;52.714;5.074;2023-09-07T09:41:19;102118.84;;;25.98;96.36
77311;BME280;66371;52.714;5.074;2023-09-07T09:43:46;102112.69;;;26.21;94.95
77311;BME280;66371;52.714;5.074;2023-09-07T09:46:15;102119.50;;;26.30;93.27
77311;BME280;66371;52.714;5.074;2023-09-07T09:48:41;102120.28;;;26.48;92.49
77311;BME280;66371;52.714;5.074;2023-09-07T09:51:08;102110.22;;;26.72;88.41
77311;BME280;66371;52.714;5.074;2023-09-07T09:53:34;102109.31;;;26.89;87.16
77311;BME280;66371;52.714;5.074;2023-09-07T09:56:00;102111.47;;;26.87;88.68
77311;BME280;66371;52.714;5.074;2023-09-07T09:58:26;102101.19;;;26.94;89.08
77311;BME280;66371;52.714;5.074;2023-09-07T10:00:54;102111.47;;;27.10;87.95
77311;BME280;66371;52.714;5.074;2023-09-07T10:03:24;102110.78;;;27.26;86.85
77311;BME280;66371;52.714;5.074;2023-09-07T10:05:52;102111.16;;;27.30;86.31
77311;BME280;66371;52.714;5.074;2023-09-07T10:08:19;102110.00;;;26.85;86.84
77311;BME280;66371;52.714;5.074;2023-09-07T10:10:51;102099.16;;;26.37;84.87
77311;BME280;66371;52.714;5.074;2023-09-07T10:13:31;102101.34;;;26.17;97.98
77311;BME280;66371;52.714;5.074;2023-09-07T10:16:02;102111.69;;;26.45;94.15
77311;BME280;66371;52.714;5.074;2023-09-07T10:18:38;102110.81;;;26.33;96.15
77311;BME280;66371;52.714;5.074;2023-09-07T10:21:05;102110.66;;;26.57;91.39
77311;BME280;66371;52.714;5.074;2023-09-07T10:23:41;102110.75;;;26.51;90.38
77311;BME280;66371;52.714;5.074;2023-09-07T10:26:25;102091.69;;;26.15;89.04
77311;BME280;66371;52.714;5.074;2023-09-07T10:29:01;102097.97;;;26.15;88.70
77311;BME280;66371;52.714;5.074;2023-09-07T10:31:29;102103.44;;;26.04;94.48
77311;BME280;66371;52.714;5.074;2023-09-07T10:34:08;102101.06;;;26.07;93.73
77311;BME280;66371;52.714;5.074;2023-09-07T10:36:35;102102.88;;;26.13;90.90
77311;BME280;66371;52.714;5.074;2023-09-07T10:39:02;102102.97;;;26.07;93.17
77311;BME280;66371;52.714;5.074;2023-09-07T10:41:39;102099.22;;;26.01;90.54
77311;BME280;66371;52.714;5.074;2023-09-07T10:44:05;102100.84;;;26.09;95.35
77311;BME280;66371;52.714;5.074;2023-09-07T10:46:32;102101.25;;;26.06;91.29
77311;BME280;66371;52.714;5.074;2023-09-07T10:48:57;102096.31;;;26.14;96.59
77311;BME280;66371;52.714;5.074;2023-09-07T10:51:24;102079.03;;;25.96;98.70
77311;BME280;66371;52.714;5.074;2023-09-07T10:53:49;102091.00;;;26.01;97.76
77311;BME280;66371;52.714;5.074;2023-09-07T10:56:15;102089.56;;;25.99;98.42
77311;BME280;66371;52.714;5.074;2023-09-07T10:58:40;102085.38;;;26.26;99.44
77311;BME280;66371;52.714;5.074;2023-09-07T11:01:08;102093.84;;;26.24;99.50
77311;BME280;66371;52.714;5.074;2023-09-07T11:03:35;102082.53;;;26.21;99.97
77311;BME280;66371;52.714;5.074;2023-09-07T11:06:14;102090.41;;;25.99;96.40
77311;BME280;66371;52.714;5.074;2023-09-07T11:08:40;102091.53;;;25.92;96.91
77311;BME280;66371;52.714;5.074;2023-09-07T11:11:08;102085.06;;;25.86;99.73
77311;BME280;66371;52.714;5.074;2023-09-07T11:13:37;102079.75;;;25.73;95.64
77311;BME280;66371;52.714;5.074;2023-09-07T11:16:06;102086.59;;;25.82;100.00
77311;BME280;66371;52.714;5.074;2023-09-07T11:18:33;102088.50;;;26.00;100.00
77311;BME280;66371;52.714;5.074;2023-09-07T11:21:01;102075.78;;;26.05;99.73
77311;BME280;66371;52.714;5.074;2023-09-07T11:23:30;102080.03;;;26.19;99.37
77311;BME280;66371;52.714;5.074;2023-09-07T11:26:08;102063.19;;;26.16;95.07
77311;BME280;66371;52.714;5.074;2023-09-07T11:28:34;102077.31;;;26.31;98.43
77311;BME280;66371;52.714;5.074;2023-09-07T11:31:01;102072.66;;;26.31;94.95
77311;BME280;66371;52.714;5.074;2023-09-07T11:33:26;102071.44;;;26.27;97.32
77311;BME280;66371;52.714;5.074;2023-09-07T11:35:52;102070.84;;;26.25;97.07
77311;BME280;66371;52.714;5.074;2023-09-07T11:38:20;102061.06;;;26.18;92.88
77311;BME280;66371;52.714;5.074;2023-09-07T11:40:47;102074.31;;;26.32;97.37
77311;BME280;66371;52.714;5.074;2023-09-07T11:43:17;102059.91;;;26.25;90.72
77311;BME280;66371;52.714;5.074;2023-09-07T11:45:46;102071.50;;;26.50;96.81
77311;BME280;66371;52.714;5.074;2023-09-07T11:48:11;102058.97;;;26.43;94.27
77311;BME280;66371;52.714;5.074;2023-09-07T11:50:38;102052.72;;;26.24;91.12
77311;BME280;66371;52.714;5.074;2023-09-07T11:53:04;102053.31;;;26.26;94.08
77311;BME280;66371;52.714;5.074;2023-09-07T11:55:31;102045.03;;;26.44;93.47
77311;BME280;66371;52.714;5.074;2023-09-07T11:57:58;102040.47;;;26.38;90.64
77311;BME280;66371;52.714;5.074;2023-09-07T12:00:23;102045.63;;;26.46;92.02
77311;BME280;66371;52.714;5.074;2023-09-07T12:02:49;102035.50;;;26.47;95.85
77311;BME280;66371;52.714;5.074;2023-09-07T12:05:15;102032.94;;;26.63;93.93
77311;BME280;66371;52.714;5.074;2023-09-07T12:07:41;102032.75;;;26.47;88.06
77311;BME280;66371;52.714;5.074;2023-09-07T12:10:11;102035.59;;;26.40;90.07
77311;BME280;66371;52.714;5.074;2023-09-07T12:12:37;102034.28;;;26.31;92.86
77311;BME280;66371;52.714;5.074;2023-09-07T12:15:05;102027.09;;;26.30;91.94
77311;BME280;66371;52.714;5.074;2023-09-07T12:17:32;102026.53;;;26.40;92.14
77311;BME280;66371;52.714;5.074;2023-09-07T12:19:57;102036.69;;;26.51;89.38
77311;BME280;66371;52.714;5.074;2023-09-07T12:22:22;102027.63;;;26.50;88.46
77311;BME280;66371;52.714;5.074;2023-09-07T12:24:49;102031.09;;;26.57;90.18
77311;BME280;66371;52.714;5.074;2023-09-07T12:27:14;102028.03;;;26.65;91.41
77311;BME280;66371;52.714;5.074;2023-09-07T12:29:40;102028.75;;;26.72;88.31
77311;BME280;66371;52.714;5.074;2023-09-07T12:32:05;102032.69;;;26.76;88.12
77311;BME280;66371;52.714;5.074;2023-09-07T12:34:31;102024.34;;;26.71;84.28
77311;BME280;66371;52.714;5.074;2023-09-07T12:36:57;102019.31;;;26.68;83.65
77311;BME280;66371;52.714;5.074;2023-09-07T12:39:23;102015.28;;;26.82;85.64
77311;BME280;66371;52.714;5.074;2023-09-07T12:41:48;102015.50;;;26.81;86.36